Time;durP1;ratioP1;P1;durP2;ratioP2;P2;SDS_P1;SDS_P2;PMS_P1;PMS_P2;Temp;Humidity;BMP_temperature;BMP_pressure;BME280_temperature;BME280_humidity;BME280_pressure;Samples;Min_cycle;Max_cycle;Signal;HPM_P1;HPM_P2
2022/04/01 00:01:48;;;;;;;6.53;6.22;;;;;;;16.41;52.42;98654.38;5034815;28;20025;-65
2022/04/01 00:04:14;;;;;;;6.53;6.22;;;;;;;16.35;52.68;98651.94;5035041;28;20028;-65
2022/04/01 00:06:40;;;;;;;6.10;5.90;;;;;;;16.42;52.57;98655.19;5043998;28;20051;-66
2022/04/01 00:09:06;;;;;;;6.47;6.18;;;;;;;16.40;52.77;98658.13;5036770;28;20021;-66
2022/04/01 00:11:31;;;;;;;6.30;6.00;;;;;;;16.41;52.33;98653.56;5033714;28;20037;-65
2022/04/01 00:13:57;;;;;;;6.45;6.15;;;;;;;16.34;52.91;98643.09;5034921;28;20029;-65
2022/04/01 00:16:22;;;;;;;6.60;6.30;;;;;;;16.28;53.47;98644.94;5034765;28;20496;-66
2022/04/01 00:18:48;;;;;;;6.25;5.97;;;;;;;16.27;53.43;98655.88;5043913;28;20062;-66
2022/04/01 00:21:13;;;;;;;6.90;6.60;;;;;;;16.25;53.67;98653.47;5054462;28;20052;-66
2022/04/01 00:23:39;;;;;;;6.25;5.97;;;;;;;16.24;53.85;98654.53;5038441;28;20029;-66
2022/04/01 00:26:04;;;;;;;6.68;6.38;;;;;;;16.27;54.00;98648.66;5020192;28;20719;-66
2022/04/01 00:28:30;;;;;;;6.50;6.20;;;;;;;16.29;54.17;98640.38;5034654;28;20021;-66
2022/04/01 00:30:55;;;;;;;6.32;6.05;;;;;;;16.23;54.25;98634.22;5034742;28;20028;-66
2022/04/01 00:33:21;;;;;;;6.00;5.80;;;;;;;16.29;54.81;98635.84;5044597;28;20517;-66
2022/04/01 00:35:46;;;;;;;6.55;6.25;;;;;;;16.30;54.88;98642.81;5053565;28;20037;-66
2022/04/01 00:38:12;;;;;;;6.40;6.10;;;;;;;16.13;55.05;98633.31;5053230;28;20107;-67
2022/04/01 00:40:39;;;;;;;7.30;7.00;;;;;;;16.17;55.41;98655.84;5051403;28;20047;-66
2022/04/01 00:43:05;;;;;;;6.32;6.03;;;;;;;16.18;56.33;98657.44;5014388;28;20026;-66
2022/04/01 00:45:31;;;;;;;6.63;6.32;;;;;;;16.16;56.49;98655.03;5014452;28;20030;-66
2022/04/01 00:48:02;;;;;;;6.18;5.97;;;;;;;16.10;57.06;98647.22;5015422;28;20489;-65
2022/04/01 00:50:32;;;;;;;6.40;6.10;;;;;;;16.10;57.18;98641.88;5034191;28;20043;-66
2022/04/01 00:52:58;;;;;;;6.50;6.20;;;;;;;16.05;57.56;98631.94;5034032;28;20047;-66
2022/04/01 00:55:25;;;;;;;6.40;6.10;;;;;;;16.01;57.61;98625.47;5034452;28;20106;-66
2022/04/01 00:57:51;;;;;;;7.07;6.78;;;;;;;15.94;58.20;98620.38;5021394;28;20050;-65
2022/04/01 01:00:19;;;;;;;6.30;6.00;;;;;;;15.93;58.84;98624.06;5014128;28;20060;-66
2022/04/01 01:02:45;;;;;;;6.63;6.32;;;;;;;15.88;59.35;98623.25;5013786;28;20025;-66
2022/04/01 01:05:10;;;;;;;6.57;6.28;;;;;;;15.85;59.47;98624.53;5013467;28;20040;-66
2022/04/01 01:07:40;;;;;;;6.35;6.10;;;;;;;15.86;59.53;98630.69;5013891;28;20026;-65
2022/04/01 01:10:06;;;;;;;6.35;6.05;;;;;;;15.79;59.88;98630.09;5014122;28;20049;-66
2022/04/01 01:12:32;;;;;;;6.45;6.15;;;;;;;15.78;60.75;98631.97;5013652;28;20048;-66
2022/04/01 01:15:07;;;;;;;6.53;6.22;;;;;;;15.73;60.50;98630.09;5056187;28;20017;-66
2022/04/01 01:17:33;;;;;;;6.57;6.28;;;;;;;15.73;60.35;98634.63;5053636;28;20030;-65
2022/04/01 01:19:58;;;;;;;5.97;5.78;;;;;;;15.66;60.88;98648.19;5036641;28;20125;-65
2022/04/01 01:22:24;;;;;;;6.50;6.20;;;;;;;15.66;61.43;98644.72;5033499;28;20049;-65
2022/04/01 01:24:49;;;;;;;6.60;6.30;;;;;;;15.55;61.84;98642.97;5030255;28;20025;-65
2022/04/01 01:27:15;;;;;;;6.15;5.95;;;;;;;15.60;61.53;98645.69;5029111;28;20109;-65
2022/04/01 01:29:42;;;;;;;6.40;6.10;;;;;;;15.59;61.60;98652.09;5013712;28;20385;-65
2022/04/01 01:32:11;;;;;;;6.38;6.07;;;;;;;15.53;62.10;98645.91;5034126;28;20030;-65
2022/04/01 01:34:41;;;;;;;6.30;6.00;;;;;;;15.46;62.87;98639.94;5053266;28;20036;-65
2022/04/01 01:37:10;;;;;;;6.43;6.13;;;;;;;15.44;62.60;98648.22;5037152;28;20025;-66
2022/04/01 01:39:35;;;;;;;6.28;5.97;;;;;;;15.36;62.79;98629.97;5033204;28;20021;-65
2022/04/01 01:42:01;;;;;;;6.30;6.00;;;;;;;15.33;63.67;98632.31;5033322;28;20072;-66
2022/04/01 01:44:27;;;;;;;6.40;6.10;;;;;;;15.35;63.42;98640.88;5033047;28;20569;-66
2022/04/01 01:46:53;;;;;;;6.43;6.13;;;;;;;15.34;63.69;98639.28;5032889;28;20033;-65
2022/04/01 01:49:22;;;;;;;6.55;6.25;;;;;;;15.34;63.84;98633.94;5031234;28;20033;-66
2022/04/01 01:57:09;;;;;;;6.30;6.00;;;;;;;15.30;63.69;98639.00;5013094;28;20481;-66
2022/04/01 01:59:34;;;;;;;6.60;6.30;;;;;;;15.30;63.35;98630.97;5013411;28;20018;-66
2022/04/01 02:02:03;;;;;;;6.60;6.30;;;;;;;15.19;64.28;98622.03;5013000;28;20374;-65
2022/04/01 02:04:29;;;;;;;7.72;7.43;;;;;;;15.16;64.59;98619.06;5012829;28;20037;-66
2022/04/01 02:06:55;;;;;;;6.40;6.10;;;;;;;15.13;64.13;98615.03;5012991;28;20029;-65
2022/04/01 02:09:21;;;;;;;6.50;6.20;;;;;;;15.15;64.13;98615.59;5012958;28;20026;-65
2022/04/01 02:11:47;;;;;;;6.50;6.20;;;;;;;15.18;63.84;98609.75;5012517;28;20041;-66
2022/04/01 02:14:12;;;;;;;6.10;5.90;;;;;;;15.15;64.66;98607.59;5012935;28;20022;-65
2022/04/01 02:16:39;;;;;;;6.22;5.97;;;;;;;15.18;64.19;98603.59;5031045;28;20017;-65
2022/04/01 02:19:05;;;;;;;6.65;6.35;;;;;;;15.13;64.55;98599.03;5043909;28;20024;-66
2022/04/01 02:21:31;;;;;;;6.40;6.10;;;;;;;15.01;65.41;98587.66;5044964;28;20032;-65
2022/04/01 02:23:56;;;;;;;6.43;6.13;;;;;;;14.92;65.71;98598.00;5032349;28;20386;-65
2022/04/01 02:26:22;;;;;;;6.43;6.13;;;;;;;14.85;66.33;98592.03;5032280;28;20157;-64
2022/04/01 02:28:47;;;;;;;6.55;6.25;;;;;;;14.80;66.71;98594.63;5032146;28;20021;-65
2022/04/01 02:31:18;;;;;;;6.50;6.20;;;;;;;14.82;66.77;98597.06;5032084;28;20017;-66
2022/04/01 02:33:44;;;;;;;6.43;6.13;;;;;;;14.79;66.75;98594.91;5044225;28;20028;-65
2022/04/01 02:36:13;;;;;;;6.50;6.20;;;;;;;14.80;66.72;98586.63;5039630;28;20472;-66
2022/04/01 02:38:40;;;;;;;6.50;6.20;;;;;;;14.85;66.47;98588.56;5030390;28;20029;-65
2022/04/01 02:41:08;;;;;;;6.50;6.20;;;;;;;14.90;65.53;98588.59;5031220;28;20465;-65
2022/04/01 02:43:34;;;;;;;6.60;6.30;;;;;;;14.86;65.89;98590.16;5031855;28;20022;-68
2022/04/01 02:46:00;;;;;;;6.50;6.20;;;;;;;14.80;66.46;98583.16;5030494;28;20033;-65
2022/04/01 02:48:26;;;;;;;6.38;6.07;;;;;;;14.72;66.82;98588.94;5031690;28;20026;-65
2022/04/01 02:50:52;;;;;;;6.72;6.43;;;;;;;14.68;66.50;98585.94;5031961;28;20071;-66
2022/04/01 02:53:17;;;;;;;6.13;5.93;;;;;;;14.66;66.76;98588.06;5031747;28;20018;-65
2022/04/01 02:55:44;;;;;;;6.50;6.20;;;;;;;14.69;66.75;98594.75;5030247;28;20036;-65
2022/04/01 02:58:10;;;;;;;6.60;6.30;;;;;;;14.63;66.96;98600.06;5031220;28;20053;-66
2022/04/01 03:00:37;;;;;;;6.40;6.10;;;;;;;14.59;66.79;98596.25;5030538;28;20071;-65
2022/04/01 03:03:07;;;;;;;6.00;5.80;;;;;;;14.56;67.66;98599.44;5031637;28;20022;-66
2022/04/01 03:05:40;;;;;;;6.50;6.20;;;;;;;14.55;67.19;98600.47;5012100;28;20038;-66
2022/04/01 03:08:07;;;;;;;6.00;5.80;;;;;;;14.48;68.02;98596.38;5012142;28;20500;-66
2022/04/01 03:10:37;;;;;;;6.75;6.45;;;;;;;14.43;68.62;98588.28;5011927;28;20287;-66
2022/04/01 03:13:03;;;;;;;6.40;6.10;;;;;;;14.47;67.93;98587.56;5034949;28;20400;-66
2022/04/01 03:15:29;;;;;;;6.10;5.90;;;;;;;14.46;67.56;98591.28;5051567;28;20524;-65
2022/04/01 03:17:56;;;;;;;6.35;6.05;;;;;;;14.46;67.86;98599.28;5049189;28;20095;-66
2022/04/01 03:20:23;;;;;;;6.47;6.18;;;;;;;14.48;67.56;98593.72;5050286;28;20017;-66
2022/04/01 03:22:50;;;;;;;6.47;6.18;;;;;;;14.47;67.73;98594.75;5036071;28;20021;-66
2022/04/01 03:25:18;;;;;;;6.80;6.50;;;;;;;14.32;68.00;98571.31;5031435;28;20025;-65
2022/04/01 03:27:48;;;;;;;6.63;6.32;;;;;;;14.34;68.42;98583.38;5030396;28;20022;-66
2022/04/01 03:30:16;;;;;;;6.30;6.00;;;;;;;14.31;68.59;98593.72;5038661;28;20476;-66
2022/04/01 03:32:42;;;;;;;6.43;6.13;;;;;;;14.42;68.01;98594.66;5043744;28;20043;-65
2022/04/01 03:35:12;;;;;;;6.32;6.03;;;;;;;14.32;68.54;98598.81;5033611;28;20056;-65
2022/04/01 03:37:37;;;;;;;6.53;6.22;;;;;;;14.24;68.72;98596.53;5030730;28;20381;-65
2022/04/01 03:40:03;;;;;;;6.80;6.50;;;;;;;14.22;68.97;98609.31;5028828;28;20041;-65
2022/04/01 03:42:31;;;;;;;6.50;6.20;;;;;;;14.19;69.36;98604.50;5029957;28;20063;-65
2022/04/01 03:45:03;;;;;;;6.78;6.47;;;;;;;14.15;69.00;98603.34;5035979;28;20036;-65
2022/04/01 03:47:41;;;;;;;6.63;6.32;;;;;;;14.15;69.30;98602.56;5029874;28;20424;-65
2022/04/01 03:50:10;;;;;;;6.30;6.05;;;;;;;14.13;69.40;98600.13;5030534;28;20036;-66
2022/04/01 03:52:36;;;;;;;6.38;6.07;;;;;;;14.10;69.79;98597.94;5011285;28;20400;-65
2022/04/01 03:55:08;;;;;;;6.50;6.20;;;;;;;14.02;70.21;98601.81;5011524;28;20033;-65
2022/04/01 03:57:36;;;;;;;6.82;6.53;;;;;;;13.97;70.37;98607.09;5014810;28;20060;-65
2022/04/01 04:00:07;;;;;;;6.72;6.43;;;;;;;14.01;70.40;98607.41;5020492;28;20035;-66
2022/04/01 04:02:34;;;;;;;6.78;6.47;;;;;;;14.02;70.52;98611.69;5030739;28;20434;-65
2022/04/01 04:05:03;;;;;;;6.82;6.53;;;;;;;13.97;70.68;98612.44;5021070;28;20065;-66
2022/04/01 04:07:31;;;;;;;7.75;7.38;;;;;;;14.00;70.55;98605.81;5014558;28;20056;-66
2022/04/01 04:09:58;;;;;;;7.43;7.13;;;;;;;14.05;70.37;98606.69;5036304;28;20068;-65
2022/04/01 04:12:27;;;;;;;6.70;6.40;;;;;;;14.06;70.43;98605.63;5047172;28;20083;-66
2022/04/01 04:14:54;;;;;;;6.63;6.32;;;;;;;14.06;70.67;98613.63;5027681;28;20078;-65
2022/04/01 04:17:46;;;;;;;6.65;6.35;;;;;;;14.03;70.48;98616.00;5017188;28;20436;-65
2022/04/01 04:20:21;;;;;;;6.93;6.63;;;;;;;13.94;70.99;98606.78;5034025;28;20469;-65
2022/04/01 04:22:58;;;;;;;6.50;6.20;;;;;;;14.12;70.46;98600.38;5030998;28;20029;-66
2022/04/01 04:25:33;;;;;;;7.50;7.20;;;;;;;14.19;70.21;98609.03;5032080;28;20034;-66
2022/04/01 04:28:00;;;;;;;7.00;6.70;;;;;;;14.34;69.21;98614.56;5031736;28;20104;-65
2022/04/01 04:30:35;;;;;;;6.57;6.28;;;;;;;14.34;68.71;98614.56;5029581;28;20471;-65
2022/04/01 04:33:08;;;;;;;7.07;6.78;;;;;;;14.30;68.83;98611.56;5050100;28;20025;-67
2022/04/01 04:35:40;;;;;;;6.72;6.43;;;;;;;14.46;68.28;98628.63;5038133;28;20036;-66
2022/04/01 04:38:07;;;;;;;7.30;7.00;;;;;;;14.52;67.68;98624.97;5034106;28;20044;-66
2022/04/01 04:40:34;;;;;;;6.63;6.32;;;;;;;14.47;68.40;98630.25;5034077;28;20025;-65
2022/04/01 04:43:00;;;;;;;6.95;6.65;;;;;;;14.46;68.51;98617.94;5031537;28;20025;-66
2022/04/01 04:45:27;;;;;;;7.38;7.07;;;;;;;14.43;68.52;98629.09;5033568;28;20030;-66
2022/04/01 04:47:54;;;;;;;7.15;6.85;;;;;;;14.39;68.51;98625.28;5033590;28;20032;-67
2022/04/01 04:50:21;;;;;;;6.40;6.10;;;;;;;14.32;68.98;98624.66;5032123;28;20060;-66
2022/04/01 04:52:53;;;;;;;7.18;6.88;;;;;;;14.44;68.80;98621.91;5032782;28;20108;-67
2022/04/01 04:55:19;;;;;;;6.53;6.22;;;;;;;14.32;69.30;98619.31;5037811;28;20024;-66
2022/04/01 04:57:47;;;;;;;6.90;6.60;;;;;;;14.40;68.60;98621.59;5030194;28;20057;-66
2022/04/01 05:00:13;;;;;;;7.97;7.57;;;;;;;14.55;67.72;98626.34;5031902;28;20037;-66
2022/04/01 05:02:46;;;;;;;7.07;6.78;;;;;;;14.65;67.45;98618.47;5034970;28;20030;-67
2022/04/01 05:05:31;;;;;;;6.88;6.57;;;;;;;14.84;67.06;98627.00;5032767;28;20029;-67
2022/04/01 05:08:23;;;;;;;6.50;6.20;;;;;;;14.93;66.43;98628.97;5045866;28;20017;-68
2022/04/01 05:11:10;;;;;;;6.30;6.00;;;;;;;14.87;66.31;98631.81;5023951;28;20453;-67
2022/04/01 05:13:38;;;;;;;6.88;6.57;;;;;;;14.94;66.19;98629.78;5027798;28;20046;-66
2022/04/01 05:16:10;;;;;;;6.43;6.13;;;;;;;15.01;65.78;98621.56;5035831;28;20116;-67
2022/04/01 05:18:48;;;;;;;6.60;6.30;;;;;;;15.06;65.67;98635.00;5037999;28;20036;-67
2022/04/01 05:21:23;;;;;;;7.25;6.95;;;;;;;15.19;65.05;98640.72;5049257;28;20025;-67
2022/04/01 05:23:53;;;;;;;6.90;6.60;;;;;;;15.26;64.71;98635.19;5032381;28;20390;-67
2022/04/01 05:26:23;;;;;;;6.47;6.18;;;;;;;15.41;64.12;98634.53;5038401;28;20095;-67
2022/04/01 05:28:53;;;;;;;7.10;6.80;;;;;;;15.94;64.13;98632.94;5034824;28;20029;-67
2022/04/01 05:31:28;;;;;;;6.40;6.10;;;;;;;17.50;61.03;98630.47;5039065;28;20033;-67
2022/04/01 05:34:03;;;;;;;7.00;6.70;;;;;;;15.91;61.38;98631.56;5036123;28;20027;-67
2022/04/01 05:36:30;;;;;;;7.40;7.10;;;;;;;15.53;63.27;98629.84;5023386;28;20057;-67
2022/04/01 05:38:57;;;;;;;7.10;6.80;;;;;;;15.69;62.64;98630.84;5028336;28;20103;-68
2022/04/01 05:41:23;;;;;;;7.40;7.10;;;;;;;15.73;62.52;98638.09;5045074;28;20079;-68
2022/04/01 05:43:50;;;;;;;6.75;6.45;;;;;;;16.05;61.43;98642.63;5027161;28;20021;-68
2022/04/01 05:46:17;;;;;;;6.65;6.35;;;;;;;16.12;60.80;98637.88;5030803;28;20435;-68
2022/04/01 05:48:43;;;;;;;6.60;6.30;;;;;;;16.21;60.69;98641.66;5036425;28;20029;-68
2022/04/01 05:51:15;;;;;;;6.70;6.40;;;;;;;16.23;59.91;98642.25;5030682;28;20023;-68
2022/04/01 05:53:47;;;;;;;9.13;8.73;;;;;;;16.43;59.47;98632.72;5026413;28;20112;-69
2022/04/01 05:56:14;;;;;;;6.90;6.60;;;;;;;16.50;59.09;98627.94;5031064;28;20067;-68
2022/04/01 05:58:41;;;;;;;6.50;6.20;;;;;;;16.77;58.09;98630.50;5031325;28;20025;-69
2022/04/01 06:01:36;;;;;;;6.60;6.30;;;;;;;17.46;55.85;98640.91;5031236;28;20025;-71
2022/04/01 06:04:11;;;;;;;6.65;6.35;;;;;;;18.86;52.23;98635.97;5032336;28;20125;-71
2022/04/01 06:06:45;;;;;;;6.85;6.55;;;;;;;24.62;37.81;98644.25;5030836;28;20033;-70
2022/04/01 06:09:41;;;;;;;6.70;6.40;;;;;;;22.55;42.17;98635.94;5033052;28;20033;-71
2022/04/01 06:12:19;;;;;;;6.50;6.20;;;;;;;23.79;37.87;98643.88;5030916;28;20481;-71
2022/04/01 06:15:21;;;;;;;6.70;6.40;;;;;;;23.74;37.44;98642.13;5036334;28;20037;-71
2022/04/01 06:18:08;;;;;;;6.85;6.55;;;;;;;24.16;36.25;98640.78;5029343;28;20038;-69
2022/04/01 06:20:40;;;;;;;7.40;7.10;;;;;;;25.34;33.83;98646.53;5029716;28;20029;-69
2022/04/01 06:23:26;;;;;;;7.10;6.80;;;;;;;24.69;35.21;98652.72;5035441;28;20029;-70
2022/04/01 06:25:57;;;;;;;6.82;6.53;;;;;;;23.30;36.32;98627.38;5030898;28;20041;-68
2022/04/01 06:28:24;;;;;;;6.68;6.38;;;;;;;20.90;41.77;98610.94;5036256;28;20059;-69
2022/04/01 06:30:53;;;;;;;6.93;6.63;;;;;;;20.59;42.82;98634.75;5037948;28;20119;-69
2022/04/01 06:33:27;;;;;;;6.90;6.60;;;;;;;20.14;43.34;98624.13;5034093;28;20030;-69
2022/04/01 06:36:00;;;;;;;7.05;6.75;;;;;;;19.92;44.38;98610.34;5030112;28;20104;-70
2022/04/01 06:39:01;;;;;;;7.30;7.00;;;;;;;20.32;43.98;98619.91;5029300;28;20435;-69
2022/04/01 06:41:31;;;;;;;6.88;6.57;;;;;;;20.11;43.96;98616.59;4982961;28;20074;-69
2022/04/01 06:43:57;;;;;;;7.03;6.72;;;;;;;20.56;43.42;98627.22;5032502;28;20420;-71
2022/04/01 06:46:22;;;;;;;7.20;6.90;;;;;;;21.63;41.27;98623.16;5032299;28;20029;-72
2022/04/01 06:48:48;;;;;;;7.20;6.90;;;;;;;22.55;38.98;98635.94;5035326;28;20026;-70
2022/04/01 06:51:14;;;;;;;7.18;6.88;;;;;;;22.82;38.47;98632.44;5023662;28;20026;-69
2022/04/01 06:53:41;;;;;;;7.15;6.85;;;;;;;24.32;35.97;98638.50;5033430;28;20025;-68
2022/04/01 06:56:09;;;;;;;6.78;6.47;;;;;;;21.37;40.41;98647.00;5036238;28;20086;-69
2022/04/01 06:58:34;;;;;;;6.60;6.30;;;;;;;21.16;41.51;98633.00;5035328;28;20025;-69
2022/04/01 07:01:01;;;;;;;6.80;6.50;;;;;;;21.16;41.58;98638.38;5032090;28;20033;-70
2022/04/01 07:03:26;;;;;;;7.05;6.75;;;;;;;23.38;37.10;98631.28;5033535;28;20025;-70
2022/04/01 07:05:52;;;;;;;7.10;6.80;;;;;;;24.59;35.03;98639.44;5037698;28;20033;-69
2022/04/01 07:08:19;;;;;;;7.20;6.90;;;;;;;23.93;35.99;98637.28;5022746;28;20420;-70
2022/04/01 07:10:48;;;;;;;7.03;6.72;;;;;;;24.58;34.93;98627.78;5032642;28;20601;-70
2022/04/01 07:13:14;;;;;;;7.30;7.00;;;;;;;25.31;33.26;98636.31;5033095;28;20127;-71
2022/04/01 07:15:41;;;;;;;7.00;6.70;;;;;;;25.72;32.39;98625.00;5026148;28;20036;-69
2022/04/01 07:18:07;;;;;;;7.20;6.90;;;;;;;24.83;33.99;98628.22;5030541;28;20029;-69
2022/04/01 07:20:33;;;;;;;7.20;6.90;;;;;;;24.81;33.68;98621.16;5032788;28;20412;-69
2022/04/01 07:22:59;;;;;;;6.90;6.60;;;;;;;25.11;33.64;98626.84;5023626;28;20025;-69
2022/04/01 07:25:25;;;;;;;7.10;6.80;;;;;;;25.00;33.90;98636.38;5025399;28;20029;-68
2022/04/01 07:27:52;;;;;;;7.00;6.70;;;;;;;25.47;33.32;98637.44;5026953;28;20033;-68
2022/04/01 07:30:17;;;;;;;7.00;6.70;;;;;;;26.26;31.85;98638.16;5030682;28;20489;-69
2022/04/01 07:32:44;;;;;;;6.90;6.60;;;;;;;27.10;30.73;98637.38;5043453;28;20032;-69
2022/04/01 07:35:12;;;;;;;6.88;6.57;;;;;;;26.54;31.55;98633.16;5029084;28;20625;-70
2022/04/01 07:37:37;;;;;;;6.85;6.55;;;;;;;26.43;31.29;98625.34;5030260;28;20047;-69
2022/04/01 07:40:05;;;;;;;6.80;6.50;;;;;;;26.96;30.44;98631.34;5028468;28;20100;-70
2022/04/01 07:42:31;;;;;;;6.88;6.57;;;;;;;27.77;29.11;98627.44;5029945;28;20076;-69
2022/04/01 07:44:57;;;;;;;6.80;6.50;;;;;;;26.61;31.24;98626.09;5032636;28;20017;-69
2022/04/01 07:47:23;;;;;;;7.20;6.90;;;;;;;27.05;30.23;98639.50;5035718;28;20032;-69
2022/04/01 07:49:50;;;;;;;6.90;6.60;;;;;;;27.17;29.84;98629.47;5033246;28;20467;-69
2022/04/01 07:52:18;;;;;;;7.47;7.18;;;;;;;26.24;30.99;98624.91;5033523;28;20033;-69
2022/04/01 07:54:44;;;;;;;7.45;7.15;;;;;;;26.50;30.79;98610.44;5034744;28;20484;-70
2022/04/01 07:57:12;;;;;;;7.38;7.07;;;;;;;27.66;28.70;98607.94;5041707;28;20051;-69
2022/04/01 07:59:37;;;;;;;7.30;7.00;;;;;;;26.87;29.97;98611.53;5029604;28;20092;-69
2022/04/01 08:02:04;;;;;;;6.88;6.57;;;;;;;27.49;29.16;98608.09;5037340;28;20025;-69
2022/04/01 08:04:29;;;;;;;7.03;6.72;;;;;;;27.51;28.78;98589.50;5039644;28;20037;-67
2022/04/01 08:06:56;;;;;;;7.13;6.82;;;;;;;27.62;28.64;98609.75;5034506;28;20027;-67
2022/04/01 08:09:23;;;;;;;7.00;6.70;;;;;;;27.88;27.95;98606.81;5047475;28;20036;-67
2022/04/01 08:11:49;;;;;;;7.10;6.80;;;;;;;27.65;28.13;98603.63;5053648;28;20024;-66
2022/04/01 08:14:15;;;;;;;7.40;7.10;;;;;;;28.74;26.64;98604.25;5038599;28;20033;-68
2022/04/01 08:16:41;;;;;;;7.00;6.70;;;;;;;29.14;26.00;98616.03;5040861;28;20029;-68
2022/04/01 08:19:06;;;;;;;7.22;6.93;;;;;;;28.20;26.58;98601.66;5034031;28;20517;-66
2022/04/01 08:21:32;;;;;;;7.35;7.05;;;;;;;27.54;26.86;98595.09;5036771;28;20041;-67
2022/04/01 08:23:59;;;;;;;7.00;6.70;;;;;;;24.38;31.24;98584.97;5034667;28;20022;-66
2022/04/01 08:26:25;;;;;;;7.35;7.05;;;;;;;26.98;27.89;98604.59;5026822;28;20598;-67
2022/04/01 08:28:51;;;;;;;7.03;6.72;;;;;;;25.36;30.11;98587.28;5032052;28;20021;-69
2022/04/01 08:31:17;;;;;;;7.22;6.93;;;;;;;25.71;29.45;98585.38;5037392;28;20476;-68
2022/04/01 08:33:43;;;;;;;7.47;7.18;;;;;;;27.14;28.05;98599.41;5033833;28;20540;-67
2022/04/01 08:36:08;;;;;;;7.10;6.80;;;;;;;26.92;27.97;98587.66;5034411;28;20032;-67
2022/04/01 08:38:34;;;;;;;7.50;7.20;;;;;;;25.16;30.95;98583.28;5028096;28;20535;-68
2022/04/01 08:41:01;;;;;;;7.18;6.88;;;;;;;24.92;31.04;98586.44;5027259;28;20370;-68
2022/04/01 08:43:37;;;;;;;6.90;6.60;;;;;;;24.83;31.15;98595.66;5031997;28;20028;-68
2022/04/01 08:46:08;;;;;;;6.80;6.50;;;;;;;25.18;30.87;98591.09;5027055;28;20120;-68
2022/04/01 08:48:35;;;;;;;7.10;6.80;;;;;;;25.28;30.54;98588.09;5035323;28;20070;-68
2022/04/01 08:51:01;;;;;;;7.05;6.75;;;;;;;25.93;29.34;98597.97;5057910;28;20025;-68
2022/04/01 08:53:26;;;;;;;7.30;7.00;;;;;;;24.70;31.13;98589.25;5039557;28;20087;-68
2022/04/01 08:55:55;;;;;;;7.07;6.78;;;;;;;26.22;29.06;98585.56;5031731;28;20025;-68
2022/04/01 08:58:23;;;;;;;7.03;6.72;;;;;;;25.96;29.68;98586.44;5029536;28;20112;-68
2022/04/01 09:00:50;;;;;;;7.10;6.80;;;;;;;24.96;30.99;98587.38;5031588;28;20021;-67
2022/04/01 09:03:17;;;;;;;7.10;6.80;;;;;;;24.75;30.73;98583.66;5035449;28;20123;-68
2022/04/01 09:05:46;;;;;;;7.00;6.70;;;;;;;25.54;29.94;98591.59;5038654;28;20561;-67
2022/04/01 09:08:14;;;;;;;7.47;7.18;;;;;;;25.92;29.21;98582.78;5037435;28;20079;-67
2022/04/01 09:11:03;;;;;;;7.20;6.90;;;;;;;25.96;28.69;98591.88;5030139;28;20030;-69
2022/04/01 09:13:48;;;;;;;7.07;6.78;;;;;;;27.43;27.33;98576.75;5032783;28;20025;-69
2022/04/01 09:16:22;;;;;;;7.28;6.97;;;;;;;27.44;27.08;98590.03;5033836;28;20499;-69
2022/04/01 09:18:48;;;;;;;7.20;6.90;;;;;;;27.33;26.88;98593.50;5030079;28;20523;-69
2022/04/01 09:21:14;;;;;;;7.53;7.22;;;;;;;27.00;27.16;98578.66;5029493;28;20030;-69
2022/04/01 09:23:46;;;;;;;7.03;6.72;;;;;;;27.00;26.97;98581.38;5031182;28;20048;-66
2022/04/01 09:26:12;;;;;;;7.10;6.80;;;;;;;26.67;27.20;98561.44;5019924;28;20062;-67
2022/04/01 09:28:40;;;;;;;7.40;7.10;;;;;;;26.69;27.68;98573.56;5040392;28;20029;-66
2022/04/01 09:31:12;;;;;;;7.10;6.80;;;;;;;26.54;27.65;98568.69;5041224;28;20020;-66
2022/04/01 09:33:43;;;;;;;7.10;6.80;;;;;;;27.31;26.99;98569.31;5021650;28;20401;-66
2022/04/01 09:36:33;;;;;;;7.10;6.80;;;;;;;26.95;27.00;98561.72;5032132;28;20033;-66
2022/04/01 09:39:09;;;;;;;7.30;7.00;;;;;;;26.58;27.66;98555.22;5029687;28;20032;-69
2022/04/01 09:41:43;;;;;;;7.00;6.70;;;;;;;25.15;29.34;98543.72;5031807;28;20045;-68
2022/04/01 09:44:22;;;;;;;7.05;6.75;;;;;;;26.54;27.62;98557.81;5032455;28;20025;-68
2022/04/01 09:46:52;;;;;;;7.00;6.70;;;;;;;26.63;28.01;98550.38;5031240;28;20061;-68
2022/04/01 09:49:48;;;;;;;7.32;7.03;;;;;;;26.50;27.71;98551.41;5022621;28;20587;-67
2022/04/01 09:52:16;;;;;;;7.10;6.80;;;;;;;26.50;27.56;98545.97;5029145;28;20069;-66
2022/04/01 09:54:52;;;;;;;6.85;6.55;;;;;;;25.71;28.58;98531.03;5035839;28;20406;-67
2022/04/01 09:57:28;;;;;;;6.80;6.50;;;;;;;25.53;29.24;98527.56;5032304;28;20045;-68
2022/04/01 09:59:54;;;;;;;6.88;6.57;;;;;;;25.15;29.81;98535.56;5048762;28;20029;-68
2022/04/01 10:02:20;;;;;;;6.95;6.65;;;;;;;26.07;28.12;98530.66;5038451;28;20617;-68
2022/04/01 10:04:46;;;;;;;7.50;7.20;;;;;;;25.21;29.37;98528.88;5030613;28;20033;-68
2022/04/01 10:07:12;;;;;;;7.00;6.70;;;;;;;25.72;28.89;98537.31;5034226;28;20540;-64
2022/04/01 10:09:39;;;;;;;6.93;6.63;;;;;;;25.75;28.29;98539.38;5027359;28;20025;-69
2022/04/01 10:12:10;;;;;;;7.15;6.85;;;;;;;25.93;28.31;98527.34;5030265;28;20052;-70
2022/04/01 10:14:40;;;;;;;6.90;6.60;;;;;;;25.99;27.71;98523.31;5029979;28;20060;-68
2022/04/01 10:17:10;;;;;;;7.18;6.88;;;;;;;25.16;28.85;98526.31;5031221;28;20034;-69
2022/04/01 10:19:39;;;;;;;7.97;7.65;;;;;;;25.51;28.30;98529.00;5027968;28;20018;-70
2022/04/01 10:22:05;;;;;;;7.30;7.00;;;;;;;25.99;27.90;98536.88;5032542;28;20041;-67
2022/04/01 10:24:57;;;;;;;6.95;6.65;;;;;;;25.95;27.49;98529.72;5047520;28;20037;-68
2022/04/01 10:27:30;;;;;;;7.40;7.10;;;;;;;25.36;28.60;98516.72;5042799;28;20033;-65
2022/04/01 10:29:59;;;;;;;7.30;7.00;;;;;;;25.78;28.38;98522.41;5031852;28;20079;-67
2022/04/01 10:32:29;;;;;;;7.07;6.78;;;;;;;26.07;28.13;98527.13;5035331;28;20051;-66
2022/04/01 10:34:57;;;;;;;7.20;6.90;;;;;;;25.92;28.40;98525.72;5027970;28;20052;-67
2022/04/01 10:37:25;;;;;;;7.10;6.80;;;;;;;25.75;27.83;98512.19;5033758;28;20720;-69
2022/04/01 10:39:52;;;;;;;7.32;7.03;;;;;;;26.27;27.66;98520.97;5028533;28;20116;-70
2022/04/01 10:42:25;;;;;;;6.90;6.60;;;;;;;26.02;27.67;98513.72;5038222;28;20036;-69
2022/04/01 10:45:00;;;;;;;6.85;6.55;;;;;;;25.91;28.16;98521.41;5033560;28;20512;-70
2022/04/01 10:53:56;;;;;;;6.90;6.60;;;;;;;25.42;28.62;98501.06;5040042;28;20519;-69
2022/04/01 10:56:25;;;;;;;6.90;6.60;;;;;;;25.01;28.69;98502.34;5030772;28;20181;-68
2022/04/01 10:59:10;;;;;;;6.97;6.68;;;;;;;25.11;28.86;98501.25;5030023;28;20029;-68
2022/04/01 11:01:39;;;;;;;6.80;6.50;;;;;;;25.50;27.85;98503.78;5031116;28;20021;-68
2022/04/01 11:04:08;;;;;;;6.72;6.43;;;;;;;26.00;27.67;98500.47;5037016;28;20017;-68
2022/04/01 11:06:56;;;;;;;6.90;6.60;;;;;;;26.42;26.82;98495.16;5036647;28;20096;-68
2022/04/01 11:09:49;;;;;;;6.80;6.50;;;;;;;26.17;28.08;98503.09;5037219;28;20040;-68
2022/04/01 11:12:21;;;;;;;7.20;6.90;;;;;;;25.76;28.21;98494.78;5036360;28;20040;-67
2022/04/01 11:14:53;;;;;;;6.95;6.65;;;;;;;26.09;27.66;98487.63;5035068;28;20040;-68
2022/04/01 11:17:19;;;;;;;6.85;6.55;;;;;;;26.23;27.54;98495.56;5034489;28;20032;-69
2022/04/01 11:20:07;;;;;;;7.03;6.72;;;;;;;25.81;28.19;98481.81;5048191;28;20408;-69
2022/04/01 11:22:34;;;;;;;6.97;6.68;;;;;;;26.02;27.83;98475.69;5042713;28;20051;-69
2022/04/01 11:25:00;;;;;;;6.90;6.60;;;;;;;25.80;28.03;98479.44;5042268;28;20056;-68
2022/04/01 11:27:26;;;;;;;7.05;6.75;;;;;;;26.58;26.76;98468.97;5035151;28;20060;-69
2022/04/01 11:30:07;;;;;;;6.68;6.38;;;;;;;26.99;26.74;98475.56;5039239;28;20060;-69
2022/04/01 11:32:35;;;;;;;7.00;6.70;;;;;;;26.64;26.87;98462.22;5031347;28;20036;-69
2022/04/01 11:35:02;;;;;;;6.80;6.50;;;;;;;26.77;26.68;98452.22;5034235;28;20037;-69
2022/04/01 11:37:28;;;;;;;7.00;6.70;;;;;;;26.32;26.58;98454.75;5037586;28;20025;-68
2022/04/01 11:40:12;;;;;;;7.40;7.10;;;;;;;26.26;26.80;98454.13;5024007;28;20480;-69
2022/04/01 11:43:07;;;;;;;7.05;6.75;;;;;;;26.93;26.39;98444.25;5036306;28;20036;-69
2022/04/01 11:45:43;;;;;;;6.82;6.53;;;;;;;27.14;25.53;98447.78;5023628;28;20033;-69
2022/04/01 11:48:15;;;;;;;6.70;6.40;;;;;;;26.54;25.84;98434.63;5027379;28;20095;-68
2022/04/01 11:50:43;;;;;;;6.97;6.68;;;;;;;26.63;25.94;98435.38;5039241;28;20037;-69
2022/04/01 11:53:26;;;;;;;7.10;6.80;;;;;;;26.69;25.70;98425.88;5049674;28;20074;-69
2022/04/01 11:55:54;;;;;;;7.10;6.80;;;;;;;26.70;25.92;98433.72;5040571;28;20018;-72
2022/04/01 11:58:23;;;;;;;6.85;6.55;;;;;;;27.11;25.63;98431.31;5030878;28;20032;-69